Terminal Aerodrome Forecast
Issued by NWS

Current Version | Previous Version | Text Only | Print | Product List | Glossary On
Versions: 1 2 3 4 5 6 7 8 9 10 11 12 13 14 15 16 17 18 19 20
000
FTUS42 KGSP 230500
TAFAND
TAF
KAND 230523Z 2306/2406 05004KT P6SM SCT250
     FM230700 05004KT 5SM BR BKN250
     FM230900 00000KT 4SM BR BKN019
      TEMPO 2309/2312 00000KT 3SM BR BKN004 BKN015
     FM231300 00000KT 4SM BR BKN012
     FM231400 24004KT P6SM SCT060 PROB30 2319/2324 4SM TSRA
      BKN040CB=

USA.gov is the U.S. government's official web portal to all federal, state and local government web resources and services.